sensor_id;sensor_type;location;lat;lon;timestamp;temperature;humidity
57386;DHT22;62655;56.780;23.922;2022-08-03T00:00:25;14.20;99.90
57386;DHT22;62655;56.780;23.922;2022-08-03T00:02:52;14.10;99.90
57386;DHT22;62655;56.780;23.922;2022-08-03T00:05:20;14.10;99.90
57386;DHT22;62655;56.780;23.922;2022-08-03T00:07:47;14.00;99.90
57386;DHT22;62655;56.780;23.922;2022-08-03T00:10:15;13.90;99.90
57386;DHT22;62655;56.780;23.922;2022-08-03T00:12:42;13.80;99.90
57386;DHT22;62655;56.780;23.922;2022-08-03T00:15:10;13.80;99.90
57386;DHT22;62655;56.780;23.922;2022-08-03T00:17:44;13.70;99.90
57386;DHT22;62655;56.780;23.922;2022-08-03T00:20:19;13.60;99.90
57386;DHT22;62655;56.780;23.922;2022-08-03T00:22:47;13.50;99.90
57386;DHT22;62655;56.780;23.922;2022-08-03T00:25:15;13.40;99.90
57386;DHT22;62655;56.780;23.922;2022-08-03T00:27:42;13.40;99.90
57386;DHT22;62655;56.780;23.922;2022-08-03T00:30:10;13.40;99.90
57386;DHT22;62655;56.780;23.922;2022-08-03T00:32:37;13.40;99.90
57386;DHT22;62655;56.780;23.922;2022-08-03T00:35:11;13.30;99.90
57386;DHT22;62655;56.780;23.922;2022-08-03T00:37:58;13.20;99.90
57386;DHT22;62655;56.780;23.922;2022-08-03T00:40:26;13.20;99.90
57386;DHT22;62655;56.780;23.922;2022-08-03T00:42:54;13.10;99.90
57386;DHT22;62655;56.780;23.922;2022-08-03T00:45:23;12.90;99.90
57386;DHT22;62655;56.780;23.922;2022-08-03T00:47:50;12.90;99.90
57386;DHT22;62655;56.780;23.922;2022-08-03T00:50:19;12.90;99.90
57386;DHT22;62655;56.780;23.922;2022-08-03T00:52:49;12.80;99.90
57386;DHT22;62655;56.780;23.922;2022-08-03T00:55:16;12.80;99.90
57386;DHT22;62655;56.780;23.922;2022-08-03T00:57:43;12.80;99.90
57386;DHT22;62655;56.780;23.922;2022-08-03T01:00:12;12.70;99.90
57386;DHT22;62655;56.780;23.922;2022-08-03T01:02:39;12.70;99.90
57386;DHT22;62655;56.780;23.922;2022-08-03T01:05:07;12.60;99.90
57386;DHT22;62655;56.780;23.922;2022-08-03T01:10:27;12.50;99.90
57386;DHT22;62655;56.780;23.922;2022-08-03T01:16:17;12.50;99.90
57386;DHT22;62655;56.780;23.922;2022-08-03T01:18:51;12.40;99.90
57386;DHT22;62655;56.780;23.922;2022-08-03T01:27:02;12.20;99.90
57386;DHT22;62655;56.780;23.922;2022-08-03T01:32:20;12.20;99.90
57386;DHT22;62655;56.780;23.922;2022-08-03T01:35:12;12.10;99.90
57386;DHT22;62655;56.780;23.922;2022-08-03T01:37:44;12.20;99.90
57386;DHT22;62655;56.780;23.922;2022-08-03T01:40:13;12.20;99.90
57386;DHT22;62655;56.780;23.922;2022-08-03T01:42:41;12.20;99.90
57386;DHT22;62655;56.780;23.922;2022-08-03T01:45:09;12.20;99.90
57386;DHT22;62655;56.780;23.922;2022-08-03T01:47:39;12.20;99.90
57386;DHT22;62655;56.780;23.922;2022-08-03T01:50:07;12.20;99.90
57386;DHT22;62655;56.780;23.922;2022-08-03T01:52:36;12.30;99.90
57386;DHT22;62655;56.780;23.922;2022-08-03T01:55:03;12.20;99.90
57386;DHT22;62655;56.780;23.922;2022-08-03T01:57:31;12.20;99.90
57386;DHT22;62655;56.780;23.922;2022-08-03T02:00:19;12.20;99.90
57386;DHT22;62655;56.780;23.922;2022-08-03T02:02:48;12.20;99.90
57386;DHT22;62655;56.780;23.922;2022-08-03T02:05:16;12.20;99.90
57386;DHT22;62655;56.780;23.922;2022-08-03T02:07:45;12.20;99.90
57386;DHT22;62655;56.780;23.922;2022-08-03T02:10:14;12.20;99.90
57386;DHT22;62655;56.780;23.922;2022-08-03T02:13:00;12.20;99.90
57386;DHT22;62655;56.780;23.922;2022-08-03T02:15:28;12.20;99.90
57386;DHT22;62655;56.780;23.922;2022-08-03T02:17:56;12.10;99.90
57386;DHT22;62655;56.780;23.922;2022-08-03T02:20:24;12.10;99.90
57386;DHT22;62655;56.780;23.922;2022-08-03T02:22:53;12.10;99.90
57386;DHT22;62655;56.780;23.922;2022-08-03T02:25:20;12.10;99.90
57386;DHT22;62655;56.780;23.922;2022-08-03T02:27:50;12.00;99.90
57386;DHT22;62655;56.780;23.922;2022-08-03T02:30:18;12.10;99.90
57386;DHT22;62655;56.780;23.922;2022-08-03T02:32:53;12.10;99.90
57386;DHT22;62655;56.780;23.922;2022-08-03T02:35:21;12.10;99.90
57386;DHT22;62655;56.780;23.922;2022-08-03T02:37:50;12.20;99.90
57386;DHT22;62655;56.780;23.922;2022-08-03T02:40:18;12.30;99.90
57386;DHT22;62655;56.780;23.922;2022-08-03T02:42:46;12.20;99.90
57386;DHT22;62655;56.780;23.922;2022-08-03T02:45:15;12.30;99.90
57386;DHT22;62655;56.780;23.922;2022-08-03T02:47:44;12.20;99.90
57386;DHT22;62655;56.780;23.922;2022-08-03T02:50:21;12.30;99.90
57386;DHT22;62655;56.780;23.922;2022-08-03T02:52:49;12.30;99.90
57386;DHT22;62655;56.780;23.922;2022-08-03T02:55:18;12.30;99.90
57386;DHT22;62655;56.780;23.922;2022-08-03T02:57:46;12.40;99.90
57386;DHT22;62655;56.780;23.922;2022-08-03T03:00:14;12.40;99.90
57386;DHT22;62655;56.780;23.922;2022-08-03T03:02:56;12.40;99.90
57386;DHT22;62655;56.780;23.922;2022-08-03T03:05:24;12.40;99.90
57386;DHT22;62655;56.780;23.922;2022-08-03T03:08:12;12.40;99.90
57386;DHT22;62655;56.780;23.922;2022-08-03T03:10:46;12.40;99.90
57386;DHT22;62655;56.780;23.922;2022-08-03T03:13:18;12.40;99.90
57386;DHT22;62655;56.780;23.922;2022-08-03T03:15:47;12.40;99.90
57386;DHT22;62655;56.780;23.922;2022-08-03T03:18:15;12.40;99.90
57386;DHT22;62655;56.780;23.922;2022-08-03T03:20:50;12.40;99.90
57386;DHT22;62655;56.780;23.922;2022-08-03T03:23:21;12.50;99.90
57386;DHT22;62655;56.780;23.922;2022-08-03T03:25:50;12.50;99.90
57386;DHT22;62655;56.780;23.922;2022-08-03T03:28:17;12.60;99.90
57386;DHT22;62655;56.780;23.922;2022-08-03T03:30:44;12.60;99.90
57386;DHT22;62655;56.780;23.922;2022-08-03T03:33:19;12.70;99.90
57386;DHT22;62655;56.780;23.922;2022-08-03T03:35:47;12.80;99.90
57386;DHT22;62655;56.780;23.922;2022-08-03T03:38:14;12.90;99.90
57386;DHT22;62655;56.780;23.922;2022-08-03T03:40:42;13.00;99.90
57386;DHT22;62655;56.780;23.922;2022-08-03T03:43:10;13.10;99.90
57386;DHT22;62655;56.780;23.922;2022-08-03T03:45:41;13.10;99.90
57386;DHT22;62655;56.780;23.922;2022-08-03T03:48:09;13.20;99.90
57386;DHT22;62655;56.780;23.922;2022-08-03T03:50:36;13.30;99.90
57386;DHT22;62655;56.780;23.922;2022-08-03T03:53:10;13.40;99.90
57386;DHT22;62655;56.780;23.922;2022-08-03T03:55:38;13.50;99.90
57386;DHT22;62655;56.780;23.922;2022-08-03T03:58:26;13.60;99.90
57386;DHT22;62655;56.780;23.922;2022-08-03T04:00:53;13.60;99.90
57386;DHT22;62655;56.780;23.922;2022-08-03T04:03:20;13.70;99.90
57386;DHT22;62655;56.780;23.922;2022-08-03T04:05:47;13.80;99.90
57386;DHT22;62655;56.780;23.922;2022-08-03T04:08:33;13.80;99.90
57386;DHT22;62655;56.780;23.922;2022-08-03T04:11:23;13.80;99.90
57386;DHT22;62655;56.780;23.922;2022-08-03T04:13:57;13.80;99.90
57386;DHT22;62655;56.780;23.922;2022-08-03T04:16:29;13.80;99.90
57386;DHT22;62655;56.780;23.922;2022-08-03T04:19:04;13.80;99.90
57386;DHT22;62655;56.780;23.922;2022-08-03T04:21:31;13.90;99.90
57386;DHT22;62655;56.780;23.922;2022-08-03T04:24:01;14.00;99.90
57386;DHT22;62655;56.780;23.922;2022-08-03T04:26:30;14.00;99.90
57386;DHT22;62655;56.780;23.922;2022-08-03T04:28:59;14.00;99.90
57386;DHT22;62655;56.780;23.922;2022-08-03T04:31:26;14.00;99.90
57386;DHT22;62655;56.780;23.922;2022-08-03T04:33:55;13.90;99.90
57386;DHT22;62655;56.780;23.922;2022-08-03T04:36:24;13.90;99.90
57386;DHT22;62655;56.780;23.922;2022-08-03T04:41:19;13.90;99.90
57386;DHT22;62655;56.780;23.922;2022-08-03T04:43:48;13.80;99.90
57386;DHT22;62655;56.780;23.922;2022-08-03T04:46:17;13.90;99.90
57386;DHT22;62655;56.780;23.922;2022-08-03T04:48:45;13.80;99.90
57386;DHT22;62655;56.780;23.922;2022-08-03T04:51:12;13.80;99.90
57386;DHT22;62655;56.780;23.922;2022-08-03T04:53:41;13.80;99.90
57386;DHT22;62655;56.780;23.922;2022-08-03T04:56:08;13.80;99.90
57386;DHT22;62655;56.780;23.922;2022-08-03T04:58:36;13.90;99.90
57386;DHT22;62655;56.780;23.922;2022-08-03T05:01:03;13.90;99.90
57386;DHT22;62655;56.780;23.922;2022-08-03T05:03:30;14.00;99.90
57386;DHT22;62655;56.780;23.922;2022-08-03T05:05:57;14.00;99.90
57386;DHT22;62655;56.780;23.922;2022-08-03T05:08:35;14.10;99.90
57386;DHT22;62655;56.780;23.922;2022-08-03T05:11:15;14.40;99.90
57386;DHT22;62655;56.780;23.922;2022-08-03T05:13:43;14.50;99.90
57386;DHT22;62655;56.780;23.922;2022-08-03T05:16:11;14.60;99.90
57386;DHT22;62655;56.780;23.922;2022-08-03T05:18:38;14.80;99.90
57386;DHT22;62655;56.780;23.922;2022-08-03T05:21:05;15.10;99.90
57386;DHT22;62655;56.780;23.922;2022-08-03T05:23:32;15.20;99.90
57386;DHT22;62655;56.780;23.922;2022-08-03T05:25:59;15.30;99.90
57386;DHT22;62655;56.780;23.922;2022-08-03T05:28:26;15.50;99.90
57386;DHT22;62655;56.780;23.922;2022-08-03T05:30:54;15.90;99.90
57386;DHT22;62655;56.780;23.922;2022-08-03T05:33:21;16.60;99.90
57386;DHT22;62655;56.780;23.922;2022-08-03T05:35:48;17.50;99.90
57386;DHT22;62655;56.780;23.922;2022-08-03T05:38:28;18.40;99.90
57386;DHT22;62655;56.780;23.922;2022-08-03T05:41:01;18.90;99.90
57386;DHT22;62655;56.780;23.922;2022-08-03T05:43:49;19.20;99.90
57386;DHT22;62655;56.780;23.922;2022-08-03T05:46:16;19.50;99.90
57386;DHT22;62655;56.780;23.922;2022-08-03T05:48:43;19.90;99.90
57386;DHT22;62655;56.780;23.922;2022-08-03T05:51:11;20.10;99.90
57386;DHT22;62655;56.780;23.922;2022-08-03T05:53:39;20.60;99.90
57386;DHT22;62655;56.780;23.922;2022-08-03T05:56:07;21.10;99.90
57386;DHT22;62655;56.780;23.922;2022-08-03T05:58:45;21.00;99.90
57386;DHT22;62655;56.780;23.922;2022-08-03T06:01:14;20.60;99.90
57386;DHT22;62655;56.780;23.922;2022-08-03T06:03:41;20.40;99.90
57386;DHT22;62655;56.780;23.922;2022-08-03T06:06:09;20.20;99.90
57386;DHT22;62655;56.780;23.922;2022-08-03T06:08:37;19.90;99.90
57386;DHT22;62655;56.780;23.922;2022-08-03T06:11:05;19.90;99.90
57386;DHT22;62655;56.780;23.922;2022-08-03T06:13:32;19.80;99.90
57386;DHT22;62655;56.780;23.922;2022-08-03T06:15:59;19.80;99.90
57386;DHT22;62655;56.780;23.922;2022-08-03T06:18:26;19.80;99.90
57386;DHT22;62655;56.780;23.922;2022-08-03T06:20:53;20.00;99.90
57386;DHT22;62655;56.780;23.922;2022-08-03T06:23:21;20.00;99.90
57386;DHT22;62655;56.780;23.922;2022-08-03T06:26:08;20.30;99.90
57386;DHT22;62655;56.780;23.922;2022-08-03T06:28:39;20.50;99.90
57386;DHT22;62655;56.780;23.922;2022-08-03T06:31:19;21.10;99.90
57386;DHT22;62655;56.780;23.922;2022-08-03T06:33:46;21.40;99.90
57386;DHT22;62655;56.780;23.922;2022-08-03T06:36:33;21.60;99.90
57386;DHT22;62655;56.780;23.922;2022-08-03T06:39:00;21.50;99.90
57386;DHT22;62655;56.780;23.922;2022-08-03T06:41:28;21.50;99.90
57386;DHT22;62655;56.780;23.922;2022-08-03T06:44:02;21.60;99.90
57386;DHT22;62655;56.780;23.922;2022-08-03T06:46:30;21.60;99.90
57386;DHT22;62655;56.780;23.922;2022-08-03T06:48:57;21.60;99.90
57386;DHT22;62655;56.780;23.922;2022-08-03T06:51:24;22.00;99.90
57386;DHT22;62655;56.780;23.922;2022-08-03T06:54:11;22.20;99.90
57386;DHT22;62655;56.780;23.922;2022-08-03T06:56:38;21.90;99.90
57386;DHT22;62655;56.780;23.922;2022-08-03T06:59:06;21.40;99.90
57386;DHT22;62655;56.780;23.922;2022-08-03T07:01:33;21.10;99.90
57386;DHT22;62655;56.780;23.922;2022-08-03T07:04:00;21.20;99.90
57386;DHT22;62655;56.780;23.922;2022-08-03T07:06:27;21.50;99.90
57386;DHT22;62655;56.780;23.922;2022-08-03T07:08:54;21.70;99.90
57386;DHT22;62655;56.780;23.922;2022-08-03T07:11:25;22.00;99.90
57386;DHT22;62655;56.780;23.922;2022-08-03T07:13:52;22.00;99.90
57386;DHT22;62655;56.780;23.922;2022-08-03T07:16:19;22.10;99.90
57386;DHT22;62655;56.780;23.922;2022-08-03T07:18:47;22.10;99.90
57386;DHT22;62655;56.780;23.922;2022-08-03T07:21:14;22.20;99.90
57386;DHT22;62655;56.780;23.922;2022-08-03T07:23:42;22.10;99.90
57386;DHT22;62655;56.780;23.922;2022-08-03T07:26:09;22.00;99.90
57386;DHT22;62655;56.780;23.922;2022-08-03T07:28:37;22.00;99.90
57386;DHT22;62655;56.780;23.922;2022-08-03T07:31:04;22.10;99.90
57386;DHT22;62655;56.780;23.922;2022-08-03T07:33:31;22.20;99.90
57386;DHT22;62655;56.780;23.922;2022-08-03T07:35:58;22.50;99.90
57386;DHT22;62655;56.780;23.922;2022-08-03T07:38:26;22.40;99.90
57386;DHT22;62655;56.780;23.922;2022-08-03T07:40:53;22.70;99.90
57386;DHT22;62655;56.780;23.922;2022-08-03T07:43:20;22.40;99.90
57386;DHT22;62655;56.780;23.922;2022-08-03T07:45:47;22.00;99.90
57386;DHT22;62655;56.780;23.922;2022-08-03T07:48:14;22.00;99.90
57386;DHT22;62655;56.780;23.922;2022-08-03T07:50:42;21.80;99.90
57386;DHT22;62655;56.780;23.922;2022-08-03T07:53:09;21.60;99.90
57386;DHT22;62655;56.780;23.922;2022-08-03T07:55:36;21.30;99.90
57386;DHT22;62655;56.780;23.922;2022-08-03T07:58:07;21.30;99.90
57386;DHT22;62655;56.780;23.922;2022-08-03T08:00:35;21.30;99.90
57386;DHT22;62655;56.780;23.922;2022-08-03T08:03:03;21.80;99.90
57386;DHT22;62655;56.780;23.922;2022-08-03T08:05:30;22.10;99.90
57386;DHT22;62655;56.780;23.922;2022-08-03T08:07:58;22.30;99.90
57386;DHT22;62655;56.780;23.922;2022-08-03T08:10:25;22.40;99.90
57386;DHT22;62655;56.780;23.922;2022-08-03T08:12:53;22.30;99.90
57386;DHT22;62655;56.780;23.922;2022-08-03T08:15:20;22.10;99.90
57386;DHT22;62655;56.780;23.922;2022-08-03T08:17:49;21.90;99.90
57386;DHT22;62655;56.780;23.922;2022-08-03T08:20:23;21.80;99.90
57386;DHT22;62655;56.780;23.922;2022-08-03T08:22:58;21.70;99.90
57386;DHT22;62655;56.780;23.922;2022-08-03T08:25:29;21.70;99.90
57386;DHT22;62655;56.780;23.922;2022-08-03T08:27:57;21.50;99.90
57386;DHT22;62655;56.780;23.922;2022-08-03T08:30:47;21.40;99.90
57386;DHT22;62655;56.780;23.922;2022-08-03T08:33:14;21.20;99.90
57386;DHT22;62655;56.780;23.922;2022-08-03T08:35:51;21.00;99.90
57386;DHT22;62655;56.780;23.922;2022-08-03T08:38:19;20.80;99.90
57386;DHT22;62655;56.780;23.922;2022-08-03T08:40:46;20.70;99.90
57386;DHT22;62655;56.780;23.922;2022-08-03T08:43:13;20.70;99.90
57386;DHT22;62655;56.780;23.922;2022-08-03T08:45:40;20.70;99.90
57386;DHT22;62655;56.780;23.922;2022-08-03T08:48:08;20.70;99.90
57386;DHT22;62655;56.780;23.922;2022-08-03T08:50:36;20.90;99.90
57386;DHT22;62655;56.780;23.922;2022-08-03T08:53:05;20.90;99.90
57386;DHT22;62655;56.780;23.922;2022-08-03T08:55:36;21.60;99.90
57386;DHT22;62655;56.780;23.922;2022-08-03T08:58:24;22.90;99.90
57386;DHT22;62655;56.780;23.922;2022-08-03T09:00:52;23.80;99.90
57386;DHT22;62655;56.780;23.922;2022-08-03T09:03:20;24.10;99.90
57386;DHT22;62655;56.780;23.922;2022-08-03T09:05:57;23.80;99.90
57386;DHT22;62655;56.780;23.922;2022-08-03T09:10:52;25.90;99.90
57386;DHT22;62655;56.780;23.922;2022-08-03T09:13:19;25.90;99.90
57386;DHT22;62655;56.780;23.922;2022-08-03T09:15:47;25.90;99.90
57386;DHT22;62655;56.780;23.922;2022-08-03T09:18:28;25.70;99.90
57386;DHT22;62655;56.780;23.922;2022-08-03T09:23:59;24.70;99.90
57386;DHT22;62655;56.780;23.922;2022-08-03T09:26:31;24.80;99.90
57386;DHT22;62655;56.780;23.922;2022-08-03T09:29:00;25.00;99.90
57386;DHT22;62655;56.780;23.922;2022-08-03T09:31:41;24.80;99.90
57386;DHT22;62655;56.780;23.922;2022-08-03T09:34:12;24.70;99.70
57386;DHT22;62655;56.780;23.922;2022-08-03T09:36:50;24.20;99.90
57386;DHT22;62655;56.780;23.922;2022-08-03T09:39:22;24.00;99.90
57386;DHT22;62655;56.780;23.922;2022-08-03T09:44:42;24.60;99.90
57386;DHT22;62655;56.780;23.922;2022-08-03T09:47:13;24.90;99.30
57386;DHT22;62655;56.780;23.922;2022-08-03T09:49:42;25.00;99.00
57386;DHT22;62655;56.780;23.922;2022-08-03T09:52:32;25.30;99.80
57386;DHT22;62655;56.780;23.922;2022-08-03T09:55:16;25.30;99.90
57386;DHT22;62655;56.780;23.922;2022-08-03T09:58:06;25.40;98.70
57386;DHT22;62655;56.780;23.922;2022-08-03T10:00:54;25.70;99.90
57386;DHT22;62655;56.780;23.922;2022-08-03T10:03:24;25.90;99.40
57386;DHT22;62655;56.780;23.922;2022-08-03T10:05:52;25.70;98.70
57386;DHT22;62655;56.780;23.922;2022-08-03T10:08:26;25.10;97.40
57386;DHT22;62655;56.780;23.922;2022-08-03T10:10:53;25.00;97.80
57386;DHT22;62655;56.780;23.922;2022-08-03T10:13:21;25.30;97.40
57386;DHT22;62655;56.780;23.922;2022-08-03T10:15:49;25.40;98.10
57386;DHT22;62655;56.780;23.922;2022-08-03T10:18:37;25.40;97.00
57386;DHT22;62655;56.780;23.922;2022-08-03T10:21:07;25.20;95.10
57386;DHT22;62655;56.780;23.922;2022-08-03T10:23:37;24.80;92.50
57386;DHT22;62655;56.780;23.922;2022-08-03T10:26:07;24.70;92.30
57386;DHT22;62655;56.780;23.922;2022-08-03T10:28:49;24.60;93.20
57386;DHT22;62655;56.780;23.922;2022-08-03T10:31:19;24.80;95.40
57386;DHT22;62655;56.780;23.922;2022-08-03T10:33:49;25.30;94.30
57386;DHT22;62655;56.780;23.922;2022-08-03T10:36:23;25.70;92.60
57386;DHT22;62655;56.780;23.922;2022-08-03T10:38:54;25.80;91.20
57386;DHT22;62655;56.780;23.922;2022-08-03T10:41:25;25.80;90.80
57386;DHT22;62655;56.780;23.922;2022-08-03T10:44:12;25.20;92.70
57386;DHT22;62655;56.780;23.922;2022-08-03T10:46:41;25.60;94.30
57386;DHT22;62655;56.780;23.922;2022-08-03T10:49:16;25.60;93.40
57386;DHT22;62655;56.780;23.922;2022-08-03T10:52:00;25.30;91.80
57386;DHT22;62655;56.780;23.922;2022-08-03T10:54:43;25.50;93.70
57386;DHT22;62655;56.780;23.922;2022-08-03T10:57:45;25.70;92.70
57386;DHT22;62655;56.780;23.922;2022-08-03T11:00:23;25.60;93.20
57386;DHT22;62655;56.780;23.922;2022-08-03T11:05:32;25.20;93.10
57386;DHT22;62655;56.780;23.922;2022-08-03T11:10:48;25.80;94.90
57386;DHT22;62655;56.780;23.922;2022-08-03T11:13:19;26.40;93.30
57386;DHT22;62655;56.780;23.922;2022-08-03T11:15:49;27.80;92.20
57386;DHT22;62655;56.780;23.922;2022-08-03T11:18:16;29.20;91.60
57386;DHT22;62655;56.780;23.922;2022-08-03T11:20:46;30.30;90.20
57386;DHT22;62655;56.780;23.922;2022-08-03T11:23:15;30.80;84.50
57386;DHT22;62655;56.780;23.922;2022-08-03T11:26:08;31.30;84.50
57386;DHT22;62655;56.780;23.922;2022-08-03T11:28:36;31.60;82.10
57386;DHT22;62655;56.780;23.922;2022-08-03T11:31:49;31.60;80.40
57386;DHT22;62655;56.780;23.922;2022-08-03T11:34:17;32.70;78.00
57386;DHT22;62655;56.780;23.922;2022-08-03T11:37:19;32.60;76.00
57386;DHT22;62655;56.780;23.922;2022-08-03T11:39:50;33.70;75.80
57386;DHT22;62655;56.780;23.922;2022-08-03T11:44:57;33.10;73.70
57386;DHT22;62655;56.780;23.922;2022-08-03T11:47:27;32.70;74.70
57386;DHT22;62655;56.780;23.922;2022-08-03T11:49:58;32.90;74.80
57386;DHT22;62655;56.780;23.922;2022-08-03T11:52:35;32.90;72.90
57386;DHT22;62655;56.780;23.922;2022-08-03T11:55:08;33.60;71.90
57386;DHT22;62655;56.780;23.922;2022-08-03T11:57:35;34.90;69.30
57386;DHT22;62655;56.780;23.922;2022-08-03T12:03:00;34.80;71.90
57386;DHT22;62655;56.780;23.922;2022-08-03T12:05:39;35.40;69.10
57386;DHT22;62655;56.780;23.922;2022-08-03T12:08:09;34.50;65.80
57386;DHT22;62655;56.780;23.922;2022-08-03T12:10:39;35.00;70.60
57386;DHT22;62655;56.780;23.922;2022-08-03T12:13:07;35.70;67.80
57386;DHT22;62655;56.780;23.922;2022-08-03T12:15:55;35.30;64.40
57386;DHT22;62655;56.780;23.922;2022-08-03T12:18:24;34.90;67.10
57386;DHT22;62655;56.780;23.922;2022-08-03T12:20:52;34.40;67.70
57386;DHT22;62655;56.780;23.922;2022-08-03T12:23:30;34.20;67.00
57386;DHT22;62655;56.780;23.922;2022-08-03T12:26:06;34.30;70.70
57386;DHT22;62655;56.780;23.922;2022-08-03T12:28:34;34.50;66.20
57386;DHT22;62655;56.780;23.922;2022-08-03T12:31:08;35.50;64.60
57386;DHT22;62655;56.780;23.922;2022-08-03T12:33:58;35.60;65.40
57386;DHT22;62655;56.780;23.922;2022-08-03T12:36:27;35.30;64.00
57386;DHT22;62655;56.780;23.922;2022-08-03T12:38:59;35.40;55.50
57386;DHT22;62655;56.780;23.922;2022-08-03T12:41:38;36.20;56.30
57386;DHT22;62655;56.780;23.922;2022-08-03T12:44:08;36.40;58.20
57386;DHT22;62655;56.780;23.922;2022-08-03T12:46:36;37.50;54.00
57386;DHT22;62655;56.780;23.922;2022-08-03T12:49:12;36.40;56.00
57386;DHT22;62655;56.780;23.922;2022-08-03T12:54:26;37.40;54.00
57386;DHT22;62655;56.780;23.922;2022-08-03T12:57:05;36.70;53.20
57386;DHT22;62655;56.780;23.922;2022-08-03T12:59:38;36.50;55.50
57386;DHT22;62655;56.780;23.922;2022-08-03T13:02:22;35.30;52.50
57386;DHT22;62655;56.780;23.922;2022-08-03T13:04:52;35.70;56.30
57386;DHT22;62655;56.780;23.922;2022-08-03T13:07:19;33.60;56.00
57386;DHT22;62655;56.780;23.922;2022-08-03T13:09:53;33.50;57.00
57386;DHT22;62655;56.780;23.922;2022-08-03T13:12:25;34.40;55.30
57386;DHT22;62655;56.780;23.922;2022-08-03T13:14:59;33.40;55.00
57386;DHT22;62655;56.780;23.922;2022-08-03T13:17:26;35.30;55.00
57386;DHT22;62655;56.780;23.922;2022-08-03T13:19:54;35.80;55.60
57386;DHT22;62655;56.780;23.922;2022-08-03T13:22:24;35.90;51.90
57386;DHT22;62655;56.780;23.922;2022-08-03T13:24:53;33.70;54.90
57386;DHT22;62655;56.780;23.922;2022-08-03T13:27:26;32.80;57.10
57386;DHT22;62655;56.780;23.922;2022-08-03T13:30:14;32.20;57.30
57386;DHT22;62655;56.780;23.922;2022-08-03T13:32:57;31.60;57.60
57386;DHT22;62655;56.780;23.922;2022-08-03T13:35:26;32.50;57.00
57386;DHT22;62655;56.780;23.922;2022-08-03T13:37:53;32.30;56.40
57386;DHT22;62655;56.780;23.922;2022-08-03T13:40:21;32.30;54.70
57386;DHT22;62655;56.780;23.922;2022-08-03T13:42:55;33.10;53.00
57386;DHT22;62655;56.780;23.922;2022-08-03T13:45:23;33.40;55.10
57386;DHT22;62655;56.780;23.922;2022-08-03T13:47:50;32.70;56.00
57386;DHT22;62655;56.780;23.922;2022-08-03T13:50:18;32.50;56.60
57386;DHT22;62655;56.780;23.922;2022-08-03T13:52:45;33.50;56.80
57386;DHT22;62655;56.780;23.922;2022-08-03T13:55:13;33.90;58.00
57386;DHT22;62655;56.780;23.922;2022-08-03T13:57:41;34.60;57.20
57386;DHT22;62655;56.780;23.922;2022-08-03T14:00:28;33.90;54.70
57386;DHT22;62655;56.780;23.922;2022-08-03T14:02:58;33.40;55.40
57386;DHT22;62655;56.780;23.922;2022-08-03T14:05:42;33.60;56.50
57386;DHT22;62655;56.780;23.922;2022-08-03T14:08:10;33.50;55.20
57386;DHT22;62655;56.780;23.922;2022-08-03T14:10:41;33.30;56.20
57386;DHT22;62655;56.780;23.922;2022-08-03T14:13:11;33.40;56.70
57386;DHT22;62655;56.780;23.922;2022-08-03T14:15:44;33.00;55.10
57386;DHT22;62655;56.780;23.922;2022-08-03T14:18:18;33.90;59.50
57386;DHT22;62655;56.780;23.922;2022-08-03T14:21:04;34.30;56.20
57386;DHT22;62655;56.780;23.922;2022-08-03T14:23:33;34.80;56.80
57386;DHT22;62655;56.780;23.922;2022-08-03T14:26:01;34.50;54.80
57386;DHT22;62655;56.780;23.922;2022-08-03T14:28:29;34.00;57.40
57386;DHT22;62655;56.780;23.922;2022-08-03T14:30:56;32.90;57.60
57386;DHT22;62655;56.780;23.922;2022-08-03T14:33:23;32.10;63.40
57386;DHT22;62655;56.780;23.922;2022-08-03T14:35:51;30.20;62.60
57386;DHT22;62655;56.780;23.922;2022-08-03T14:38:19;28.80;64.10
57386;DHT22;62655;56.780;23.922;2022-08-03T14:40:47;28.40;68.40
57386;DHT22;62655;56.780;23.922;2022-08-03T14:43:15;27.80;68.30
57386;DHT22;62655;56.780;23.922;2022-08-03T14:46:00;27.70;70.90
57386;DHT22;62655;56.780;23.922;2022-08-03T14:48:27;27.40;65.30
57386;DHT22;62655;56.780;23.922;2022-08-03T14:51:15;27.20;69.60
57386;DHT22;62655;56.780;23.922;2022-08-03T14:53:42;26.90;69.20
57386;DHT22;62655;56.780;23.922;2022-08-03T14:56:10;26.80;68.40
57386;DHT22;62655;56.780;23.922;2022-08-03T14:58:37;26.80;68.40
57386;DHT22;62655;56.780;23.922;2022-08-03T15:01:05;26.90;70.50
57386;DHT22;62655;56.780;23.922;2022-08-03T15:03:53;27.00;70.50
57386;DHT22;62655;56.780;23.922;2022-08-03T15:06:20;26.60;67.10
57386;DHT22;62655;56.780;23.922;2022-08-03T15:08:48;26.60;69.20
57386;DHT22;62655;56.780;23.922;2022-08-03T15:11:36;26.20;67.50
57386;DHT22;62655;56.780;23.922;2022-08-03T15:14:03;26.20;69.60
57386;DHT22;62655;56.780;23.922;2022-08-03T15:16:35;26.30;68.90
57386;DHT22;62655;56.780;23.922;2022-08-03T15:19:03;26.30;67.40
57386;DHT22;62655;56.780;23.922;2022-08-03T15:21:50;26.60;68.80
57386;DHT22;62655;56.780;23.922;2022-08-03T15:24:17;26.70;68.60
57386;DHT22;62655;56.780;23.922;2022-08-03T15:26:45;27.00;68.00
57386;DHT22;62655;56.780;23.922;2022-08-03T15:29:12;27.20;72.20
57386;DHT22;62655;56.780;23.922;2022-08-03T15:32:00;27.80;68.00
57386;DHT22;62655;56.780;23.922;2022-08-03T15:34:33;29.20;68.20
57386;DHT22;62655;56.780;23.922;2022-08-03T15:37:00;30.30;63.40
57386;DHT22;62655;56.780;23.922;2022-08-03T15:39:27;31.50;60.70
57386;DHT22;62655;56.780;23.922;2022-08-03T15:41:55;31.30;60.60
57386;DHT22;62655;56.780;23.922;2022-08-03T15:44:22;30.90;61.10
57386;DHT22;62655;56.780;23.922;2022-08-03T15:46:51;31.20;60.40
57386;DHT22;62655;56.780;23.922;2022-08-03T15:49:19;30.90;60.80
57386;DHT22;62655;56.780;23.922;2022-08-03T15:51:46;32.40;60.10
57386;DHT22;62655;56.780;23.922;2022-08-03T15:54:14;32.20;59.50
57386;DHT22;62655;56.780;23.922;2022-08-03T15:56:41;32.80;59.00
57386;DHT22;62655;56.780;23.922;2022-08-03T16:11:54;34.80;59.50
57386;DHT22;62655;56.780;23.922;2022-08-03T16:14:22;34.80;60.10
57386;DHT22;62655;56.780;23.922;2022-08-03T16:17:04;34.90;60.50
57386;DHT22;62655;56.780;23.922;2022-08-03T16:19:32;35.00;58.60
57386;DHT22;62655;56.780;23.922;2022-08-03T16:22:01;34.60;57.50
57386;DHT22;62655;56.780;23.922;2022-08-03T16:24:29;34.50;56.80
57386;DHT22;62655;56.780;23.922;2022-08-03T16:26:57;34.00;58.60
57386;DHT22;62655;56.780;23.922;2022-08-03T16:29:26;33.70;60.40
57386;DHT22;62655;56.780;23.922;2022-08-03T16:31:54;32.60;63.70